createdAt,value
2019-05-21T00:00:21.576Z,48.80
2019-05-21T00:02:23.580Z,53.80
2019-05-21T00:04:28.279Z,51.70
2019-05-21T00:06:28.829Z,56.57
2019-05-21T00:08:30.480Z,51.60
2019-05-21T00:10:32.212Z,50.13
2019-05-21T00:12:33.994Z,50.40
2019-05-21T00:14:35.653Z,64.13
2019-05-21T00:16:37.593Z,52.43
2019-05-21T00:18:39.257Z,52.90
2019-05-21T00:20:41.200Z,51.30
2019-05-21T00:22:42.871Z,50.20
2019-05-21T00:24:44.626Z,54.77
2019-05-21T00:26:46.489Z,54.50
2019-05-21T00:29:24.613Z,49.60
2019-05-21T00:32:02.763Z,51.17
2019-05-21T00:34:43.844Z,49.97
2019-05-21T00:37:20.928Z,54.77
2019-05-21T00:39:59.150Z,55.27
2019-05-21T00:42:01.004Z,53.67
2019-05-21T00:44:02.672Z,54.70
2019-05-21T00:46:04.352Z,52.10
2019-05-21T00:48:06.035Z,55.00
2019-05-21T00:50:07.887Z,54.83
2019-05-21T00:52:09.766Z,55.50
2019-05-21T00:54:11.518Z,61.03
2019-05-21T00:56:13.492Z,66.23
2019-05-21T00:58:15.444Z,54.63
2019-05-21T01:00:17.504Z,63.50
2019-05-21T01:02:19.177Z,53.13
2019-05-21T01:04:20.844Z,60.30
2019-05-21T01:06:22.512Z,60.20
2019-05-21T01:08:24.176Z,57.07
2019-05-21T01:10:26.172Z,55.03
2019-05-21T01:12:27.858Z,58.40
2019-05-21T01:14:29.521Z,59.60
2019-05-21T01:16:31.251Z,68.83
2019-05-21T01:18:33.272Z,60.33
2019-05-21T01:20:34.947Z,59.30
2019-05-21T01:22:36.626Z,61.43
2019-05-21T01:24:38.300Z,63.33
2019-05-21T01:26:39.986Z,56.73
2019-05-21T01:28:41.651Z,59.40
2019-05-21T01:30:43.319Z,56.37
2019-05-21T01:32:45.006Z,59.90
2019-05-21T01:34:46.689Z,53.17
2019-05-21T01:36:48.363Z,54.60
2019-05-21T01:38:50.330Z,51.50
2019-05-21T01:40:52.284Z,53.37
2019-05-21T01:42:53.964Z,57.80
2019-05-21T01:44:55.640Z,56.37
2019-05-21T01:46:57.317Z,55.33
2019-05-21T01:48:58.988Z,62.03
2019-05-21T01:51:00.654Z,62.20
2019-05-21T01:53:02.407Z,57.70
2019-05-21T01:55:04.218Z,55.20
2019-05-21T01:57:05.910Z,59.87
2019-05-21T01:59:07.569Z,55.93
2019-05-21T02:01:09.233Z,60.43
2019-05-21T02:03:10.914Z,62.40
2019-05-21T02:05:12.567Z,55.27
2019-05-21T02:07:14.237Z,61.37
2019-05-21T02:09:15.897Z,56.43
2019-05-21T02:11:17.576Z,55.13
2019-05-21T02:13:19.253Z,57.53
2019-05-21T02:15:20.917Z,57.40
2019-05-21T02:17:23.133Z,54.43
2019-05-21T02:19:24.776Z,61.27
2019-05-21T02:21:26.449Z,57.63
2019-05-21T02:23:28.125Z,58.87
2019-05-21T02:25:29.801Z,58.23
2019-05-21T02:27:31.486Z,58.53
2019-05-21T02:29:33.470Z,54.10
2019-05-21T02:31:35.138Z,61.30
2019-05-21T02:33:37.086Z,58.70
2019-05-21T02:35:53.712Z,61.13
2019-05-21T02:37:42.332Z,61.70
2019-05-21T02:39:43.994Z,53.07
2019-05-21T02:41:45.755Z,53.00
2019-05-21T02:43:47.429Z,57.73
2019-05-21T02:45:49.197Z,60.77
2019-05-21T02:47:50.883Z,53.03
2019-05-21T02:49:52.861Z,62.23
2019-05-21T02:51:54.533Z,60.93
2019-05-21T02:53:56.223Z,64.60
2019-05-21T02:55:57.971Z,56.93
2019-05-21T02:57:59.654Z,68.60
2019-05-21T03:00:03.242Z,60.47
2019-05-21T03:02:14.099Z,60.23
2019-05-21T03:04:15.781Z,58.00
2019-05-21T03:06:17.441Z,60.20
2019-05-21T03:08:19.117Z,59.90
2019-05-21T03:10:20.784Z,56.60
2019-05-21T03:12:22.437Z,56.50
2019-05-21T03:14:24.122Z,53.13
2019-05-21T03:16:25.793Z,53.63
2019-05-21T03:18:27.461Z,57.43
2019-05-21T03:20:29.132Z,55.93
2019-05-21T03:22:30.793Z,66.30
2019-05-21T03:24:32.475Z,55.70
2019-05-21T03:26:34.138Z,53.50
2019-05-21T03:28:35.818Z,54.33
2019-05-21T03:30:37.494Z,48.93
2019-05-21T03:32:39.264Z,49.73
2019-05-21T03:34:41.035Z,44.60
2019-05-21T03:36:42.693Z,48.10
2019-05-21T03:38:44.362Z,43.67
2019-05-21T03:40:46.020Z,42.93
2019-05-21T03:42:47.690Z,45.97
2019-05-21T03:44:59.607Z,43.13
2019-05-21T03:46:52.942Z,40.10
2019-05-21T03:48:54.618Z,41.37
2019-05-21T03:50:56.286Z,41.97
2019-05-21T03:52:58.044Z,39.83
2019-05-21T03:55:02.804Z,40.70
2019-05-21T03:57:03.392Z,36.63
2019-05-21T03:59:05.085Z,36.43
2019-05-21T04:01:06.832Z,42.10
2019-05-21T04:03:08.489Z,35.87
2019-05-21T04:05:10.477Z,40.80
2019-05-21T04:07:12.224Z,45.83
2019-05-21T04:09:13.905Z,36.37
2019-05-21T04:11:15.567Z,37.70
2019-05-21T04:13:17.221Z,34.03
2019-05-21T04:17:39.699Z,31.63
2019-05-21T04:19:41.381Z,31.93
2019-05-21T04:21:43.041Z,34.23
2019-05-21T04:23:44.705Z,37.73
2019-05-21T04:25:46.407Z,31.80
2019-05-21T04:27:48.153Z,27.80
2019-05-21T04:29:49.829Z,30.93
2019-05-21T04:31:51.508Z,35.30
2019-05-21T04:33:53.176Z,26.17
2019-05-21T04:35:54.849Z,29.13
2019-05-21T04:37:56.985Z,26.43
2019-05-21T04:39:58.661Z,30.40
2019-05-21T04:42:00.330Z,27.60
2019-05-21T04:44:02.060Z,28.83
2019-05-21T04:46:03.835Z,29.50
2019-05-21T04:48:05.749Z,29.63
2019-05-21T04:50:07.410Z,26.90
2019-05-21T04:52:09.078Z,28.13
2019-05-21T04:54:11.005Z,30.40
2019-05-21T04:56:12.681Z,26.40
2019-05-21T04:58:14.345Z,28.73
2019-05-21T05:00:16.016Z,28.80
2019-05-21T05:02:17.986Z,25.47
2019-05-21T05:04:21.929Z,30.37
2019-05-21T05:06:23.292Z,29.10
2019-05-21T05:08:24.966Z,27.57
2019-05-21T05:10:26.639Z,25.17
2019-05-21T05:12:28.306Z,29.03
2019-05-21T05:14:29.970Z,29.57
2019-05-21T05:16:31.640Z,30.37
2019-05-21T05:18:33.593Z,28.80
2019-05-21T05:20:35.557Z,28.50
2019-05-21T05:22:37.229Z,26.30
2019-05-21T05:24:38.893Z,25.77
2019-05-21T05:26:40.578Z,28.33
2019-05-21T05:28:42.254Z,25.17
2019-05-21T05:30:43.926Z,27.30
2019-05-21T05:32:45.601Z,24.80
2019-05-21T05:34:47.272Z,23.30
2019-05-21T05:36:48.953Z,28.17
2019-05-21T05:38:50.634Z,23.50
2019-05-21T05:40:52.310Z,27.23
2019-05-21T05:42:53.968Z,29.23
2019-05-21T05:44:55.655Z,30.70
2019-05-21T05:46:57.345Z,33.90
2019-05-21T05:49:04.893Z,35.73
2019-05-21T05:51:07.473Z,28.60
2019-05-21T05:53:09.135Z,33.70
2019-05-21T05:55:10.874Z,28.03
2019-05-21T05:57:12.693Z,25.03
2019-05-21T05:59:14.679Z,28.77
2019-05-21T06:01:16.662Z,26.70
2019-05-21T06:03:18.324Z,25.07
2019-05-21T06:05:20.001Z,28.23
2019-05-21T06:07:21.944Z,26.13
2019-05-21T06:09:23.615Z,29.03
2019-05-21T06:11:25.290Z,29.43
2019-05-21T06:13:26.953Z,22.27
2019-05-21T06:15:28.902Z,25.77
2019-05-21T06:17:30.578Z,26.73
2019-05-21T06:19:32.253Z,25.90
2019-05-21T06:21:34.231Z,28.90
2019-05-21T06:23:35.895Z,26.77
2019-05-21T06:25:37.898Z,24.43
2019-05-21T06:27:40.249Z,41.43
2019-05-21T06:29:41.961Z,27.30
2019-05-21T06:31:43.666Z,26.93
2019-05-21T06:33:45.404Z,32.73
2019-05-21T06:35:47.094Z,27.63
2019-05-21T06:37:48.769Z,27.00
2019-05-21T06:39:50.678Z,29.33
2019-05-21T06:41:52.358Z,30.87
2019-05-21T06:43:54.026Z,28.73
2019-05-21T06:45:55.680Z,30.27
2019-05-21T06:47:57.365Z,30.67
2019-05-21T06:49:59.156Z,28.60
2019-05-21T06:52:00.921Z,28.50
2019-05-21T06:54:02.854Z,33.33
2019-05-21T06:56:07.407Z,28.30
2019-05-21T06:58:08.150Z,28.07
2019-05-21T07:00:09.829Z,27.37
2019-05-21T07:02:11.522Z,26.33
2019-05-21T07:04:13.278Z,32.70
2019-05-21T07:06:14.949Z,28.80
2019-05-21T07:08:33.216Z,27.23
2019-05-21T07:10:20.243Z,30.87
2019-05-21T07:12:21.981Z,27.40
2019-05-21T07:14:23.925Z,26.10
2019-05-21T07:16:25.617Z,30.67
2019-05-21T07:18:27.293Z,31.17
2019-05-21T07:20:28.962Z,34.27
2019-05-21T07:22:30.676Z,31.03
2019-05-21T07:24:32.415Z,27.50
2019-05-21T07:26:34.091Z,26.20
2019-05-21T07:28:35.758Z,27.63
2019-05-21T07:30:37.443Z,29.50
2019-05-21T07:32:39.459Z,32.17
2019-05-21T07:34:41.487Z,29.90
2019-05-21T07:36:43.410Z,31.93
2019-05-21T07:38:53.407Z,30.67
2019-05-21T07:40:48.632Z,33.20
2019-05-21T07:42:50.347Z,34.77
2019-05-21T07:44:52.016Z,28.20
2019-05-21T07:46:53.701Z,34.97
2019-05-21T07:48:55.689Z,45.33
2019-05-21T07:50:57.365Z,33.63
2019-05-21T07:52:59.020Z,36.30
2019-05-21T07:55:00.690Z,36.30
2019-05-21T07:57:02.390Z,34.17
2019-05-21T07:59:04.065Z,38.27
2019-05-21T08:01:05.729Z,35.93
2019-05-21T08:03:07.408Z,34.67
2019-05-21T08:05:09.071Z,33.37
2019-05-21T08:07:10.758Z,33.10
2019-05-21T08:09:14.645Z,35.77
2019-05-21T08:11:16.005Z,36.97
2019-05-21T08:13:17.677Z,34.50
2019-05-21T08:15:19.345Z,32.90
2019-05-21T08:17:21.027Z,34.07
2019-05-21T08:19:22.702Z,43.10
2019-05-21T08:21:24.366Z,38.20
2019-05-21T08:23:26.063Z,34.87
2019-05-21T08:25:27.718Z,37.60
2019-05-21T08:27:29.399Z,33.47
2019-05-21T08:29:31.057Z,37.13
2019-05-21T08:31:32.825Z,41.73
2019-05-21T08:33:34.508Z,31.87
2019-05-21T08:35:36.198Z,32.87
2019-05-21T08:37:37.860Z,31.13
2019-05-21T08:39:39.530Z,30.73
2019-05-21T08:41:41.293Z,33.40
2019-05-21T08:43:42.991Z,42.97
2019-05-21T08:45:44.666Z,39.83
2019-05-21T08:47:46.334Z,32.57
2019-05-21T08:49:48.007Z,45.53
2019-05-21T08:51:49.685Z,38.90
2019-05-21T08:53:51.355Z,32.60
2019-05-21T08:55:53.013Z,32.23
2019-05-21T08:58:06.482Z,30.30
2019-05-21T08:59:58.255Z,30.60
2019-05-21T09:01:59.969Z,30.57
2019-05-21T09:04:01.887Z,27.73
2019-05-21T09:06:03.553Z,30.10
2019-05-21T09:08:05.281Z,22.10
2019-05-21T09:10:08.143Z,21.40
2019-05-21T09:12:09.803Z,20.33
2019-05-21T09:14:11.506Z,27.60
2019-05-21T09:16:13.175Z,25.93
2019-05-21T09:18:14.850Z,20.30
2019-05-21T09:20:17.308Z,19.97
2019-05-21T09:22:18.964Z,19.43
2019-05-21T09:24:20.913Z,22.80
2019-05-21T09:26:22.582Z,17.33
2019-05-21T09:28:24.248Z,20.30
2019-05-21T09:30:25.923Z,19.67
2019-05-21T09:32:27.584Z,18.23
2019-05-21T09:34:29.272Z,18.33
2019-05-21T09:36:30.938Z,17.40
2019-05-21T09:38:32.608Z,19.67
2019-05-21T09:40:34.260Z,16.73
2019-05-21T09:42:35.948Z,18.77
2019-05-21T09:44:37.712Z,17.67
2019-05-21T09:46:39.411Z,19.90
2019-05-21T09:48:41.196Z,25.10
2019-05-21T09:50:42.870Z,16.67
2019-05-21T09:52:44.538Z,16.90
2019-05-21T09:54:46.222Z,18.17
2019-05-21T09:56:47.885Z,14.97
2019-05-21T09:58:49.960Z,18.50
2019-05-21T10:01:17.174Z,18.07
2019-05-21T10:03:20.836Z,17.80
2019-05-21T10:05:22.806Z,17.00
2019-05-21T10:07:39.144Z,17.23
2019-05-21T10:09:28.058Z,19.80
2019-05-21T10:11:29.724Z,22.70
2019-05-21T10:13:31.694Z,21.70
2019-05-21T10:15:33.354Z,18.27
2019-05-21T10:17:35.025Z,25.50
2019-05-21T10:19:37.056Z,23.63
2019-05-21T10:21:38.724Z,23.30
2019-05-21T10:23:40.398Z,20.70
2019-05-21T10:25:42.064Z,23.43
2019-05-21T10:27:43.729Z,21.80
2019-05-21T10:29:45.411Z,26.50
2019-05-21T10:31:47.073Z,20.63
2019-05-21T10:33:48.775Z,22.43
2019-05-21T10:35:50.525Z,20.83
2019-05-21T10:37:55.270Z,37.27
2019-05-21T10:39:55.769Z,27.30
2019-05-21T10:41:57.442Z,23.13
2019-05-21T10:43:59.151Z,26.03
2019-05-21T10:46:01.185Z,28.67
2019-05-21T10:48:02.861Z,27.97
2019-05-21T10:50:05.011Z,32.33
2019-05-21T10:52:06.676Z,40.67
2019-05-21T10:54:08.457Z,44.60
2019-05-21T10:56:10.109Z,47.40
2019-05-21T10:58:11.777Z,66.60
2019-05-21T11:00:22.731Z,50.63
2019-05-21T11:02:29.410Z,56.43
2019-05-21T11:04:41.452Z,59.37
2019-05-21T11:06:43.743Z,57.80
2019-05-21T11:08:45.397Z,62.77
2019-05-21T11:10:47.345Z,65.90
2019-05-21T11:12:49.001Z,72.10
2019-05-21T11:14:50.683Z,58.57
2019-05-21T11:16:52.349Z,59.37
2019-05-21T11:18:54.018Z,62.40
2019-05-21T11:20:55.696Z,53.43
2019-05-21T11:22:58.396Z,48.67
2019-05-21T11:25:00.365Z,59.33
2019-05-21T11:27:04.758Z,52.87
2019-05-21T11:29:05.592Z,53.30
2019-05-21T11:31:07.296Z,54.90
2019-05-21T11:33:09.043Z,48.27
2019-05-21T11:35:11.225Z,48.77
2019-05-21T11:37:12.877Z,50.80
2019-05-21T11:39:14.550Z,52.93
2019-05-21T11:41:16.469Z,54.33
2019-05-21T11:43:18.292Z,53.17
2019-05-21T11:45:31.850Z,51.03
2019-05-21T11:47:23.557Z,42.80
2019-05-21T11:49:25.267Z,50.57
2019-05-21T11:51:26.996Z,51.63
2019-05-21T11:53:31.798Z,41.90
2019-05-21T11:55:32.244Z,38.87
2019-05-21T11:57:33.917Z,41.30
2019-05-21T11:59:35.585Z,40.77
2019-05-21T12:01:37.248Z,39.27
2019-05-21T12:03:38.922Z,39.93
2019-05-21T12:05:40.649Z,37.97
2019-05-21T12:07:42.379Z,37.30
2019-05-21T12:09:44.038Z,40.47
2019-05-21T12:11:45.713Z,42.43
2019-05-21T12:13:47.377Z,39.47
2019-05-21T12:15:49.057Z,34.97
2019-05-21T12:17:50.721Z,41.20
2019-05-21T12:19:52.409Z,35.97
2019-05-21T12:21:54.177Z,36.40
2019-05-21T12:23:55.849Z,35.43
2019-05-21T12:25:57.524Z,43.77
2019-05-21T12:27:59.200Z,36.23
2019-05-21T12:30:00.866Z,34.70
2019-05-21T12:32:02.651Z,32.37
2019-05-21T12:34:04.320Z,31.60
2019-05-21T12:36:06.293Z,33.50
2019-05-21T12:38:07.962Z,36.27
2019-05-21T12:40:09.940Z,31.57
2019-05-21T12:42:11.620Z,38.43
2019-05-21T12:44:13.383Z,40.77
2019-05-21T12:46:15.069Z,35.77
2019-05-21T12:48:16.737Z,38.67
2019-05-21T12:50:18.662Z,43.20
2019-05-21T12:52:20.325Z,36.83
2019-05-21T12:54:21.989Z,38.77
2019-05-21T12:56:23.954Z,38.73
2019-05-21T12:58:25.937Z,39.50
2019-05-21T13:00:28.176Z,41.03
2019-05-21T13:02:29.840Z,46.10
2019-05-21T13:04:31.596Z,43.70
2019-05-21T13:06:33.278Z,41.30
2019-05-21T13:08:34.937Z,39.00
2019-05-21T13:10:36.635Z,46.10
2019-05-21T13:12:38.307Z,44.93
2019-05-21T13:14:40.289Z,45.07
2019-05-21T13:16:41.970Z,47.00
2019-05-21T13:18:43.643Z,39.43
2019-05-21T13:20:45.321Z,39.73
2019-05-21T13:22:46.995Z,50.50
2019-05-21T13:24:48.960Z,36.03
2019-05-21T13:26:51.223Z,41.30
2019-05-21T13:28:52.889Z,38.20
2019-05-21T13:30:54.570Z,42.53
2019-05-21T13:32:56.234Z,34.10
2019-05-21T13:34:57.901Z,43.13
2019-05-21T13:36:59.628Z,49.30
2019-05-21T13:39:01.353Z,36.93
2019-05-21T13:41:04.937Z,35.17
2019-05-21T13:43:06.601Z,37.97
2019-05-21T13:45:08.879Z,40.53
2019-05-21T13:47:10.557Z,38.50
2019-05-21T13:49:12.225Z,41.77
2019-05-21T13:51:13.897Z,46.30
2019-05-21T13:53:15.579Z,49.03
2019-05-21T13:55:17.241Z,46.07
2019-05-21T13:57:18.913Z,51.17
2019-05-21T13:59:20.589Z,49.60
2019-05-21T14:01:39.315Z,41.50
2019-05-21T14:03:25.843Z,42.37
2019-05-21T14:05:28.115Z,57.23
2019-05-21T14:07:29.782Z,43.33
2019-05-21T14:09:31.472Z,47.13
2019-05-21T14:11:33.673Z,41.70
2019-05-21T14:13:35.338Z,48.83
2019-05-21T14:15:37.243Z,43.03
2019-05-21T14:17:38.923Z,40.80
2019-05-21T14:19:40.649Z,44.50
2019-05-21T14:21:42.907Z,34.70
2019-05-21T14:23:44.574Z,31.03
2019-05-21T14:25:46.354Z,32.97
2019-05-21T14:27:48.017Z,39.30
2019-05-21T14:29:49.684Z,37.13
2019-05-21T14:31:51.461Z,38.43
2019-05-21T14:33:53.140Z,39.73
2019-05-21T14:35:55.113Z,29.93
2019-05-21T14:37:56.980Z,31.03
2019-05-21T14:39:58.695Z,35.87
2019-05-21T14:42:00.567Z,30.47
2019-05-21T14:44:02.553Z,35.73
2019-05-21T14:46:04.356Z,36.00
2019-05-21T14:48:06.027Z,34.50
2019-05-21T14:50:07.693Z,35.20
2019-05-21T14:52:09.813Z,33.27
2019-05-21T14:54:25.551Z,47.20
2019-05-21T14:56:15.357Z,31.10
2019-05-21T14:58:17.026Z,40.10
2019-05-21T15:00:25.639Z,45.67
2019-05-21T15:02:27.309Z,39.10
2019-05-21T15:04:29.162Z,38.10
2019-05-21T15:06:31.149Z,39.60
2019-05-21T15:08:32.814Z,39.03
2019-05-21T15:10:47.370Z,39.10
2019-05-21T15:12:38.074Z,41.87
2019-05-21T15:14:39.758Z,35.77
2019-05-21T15:16:41.529Z,33.83
2019-05-21T15:18:43.190Z,33.83
2019-05-21T15:21:04.937Z,34.30
2019-05-21T15:23:07.054Z,43.33
2019-05-21T15:25:08.725Z,35.87
2019-05-21T15:27:10.397Z,32.00
2019-05-21T15:29:12.065Z,33.13
2019-05-21T15:31:13.723Z,29.87
2019-05-21T15:33:15.412Z,29.20
2019-05-21T15:35:17.066Z,31.47
2019-05-21T15:37:18.845Z,37.57
2019-05-21T15:39:20.629Z,32.10
2019-05-21T15:41:22.289Z,29.03
2019-05-21T15:43:23.972Z,33.50
2019-05-21T15:45:25.645Z,38.10
2019-05-21T15:47:27.322Z,33.10
2019-05-21T15:49:36.617Z,33.83
2019-05-21T15:51:32.813Z,35.40
2019-05-21T15:53:34.520Z,37.60
2019-05-21T15:55:36.218Z,39.27
2019-05-21T15:57:37.893Z,35.63
2019-05-21T15:59:39.556Z,39.83
2019-05-21T16:01:41.267Z,41.30
2019-05-21T16:03:43.201Z,40.37
2019-05-21T16:05:44.874Z,45.47
2019-05-21T16:07:46.554Z,46.90
2019-05-21T16:09:48.213Z,44.20
2019-05-21T16:11:49.885Z,45.67
2019-05-21T16:13:51.567Z,42.03
2019-05-21T16:15:53.597Z,42.90
2019-05-21T16:17:55.374Z,45.37
2019-05-21T16:19:57.037Z,45.60
2019-05-21T16:21:58.801Z,43.50
2019-05-21T16:24:00.539Z,47.80
2019-05-21T16:26:02.272Z,48.77
2019-05-21T16:28:03.956Z,48.20
2019-05-21T16:30:05.695Z,39.80
2019-05-21T16:32:07.361Z,31.70
2019-05-21T16:34:09.042Z,39.90
2019-05-21T16:36:10.705Z,32.00
2019-05-21T16:38:12.675Z,33.43
2019-05-21T16:40:14.346Z,33.70
2019-05-21T16:42:16.014Z,38.83
2019-05-21T16:44:18.043Z,41.00
2019-05-21T16:46:19.814Z,35.00
2019-05-21T16:48:21.524Z,37.83
2019-05-21T16:50:23.713Z,35.93
2019-05-21T16:52:25.388Z,33.77
2019-05-21T16:54:27.057Z,37.00
2019-05-21T16:56:28.993Z,39.53
2019-05-21T16:58:30.660Z,33.03
2019-05-21T17:00:32.338Z,32.67
2019-05-21T17:02:34.117Z,32.87
2019-05-21T17:04:35.788Z,34.20
2019-05-21T17:06:37.495Z,34.00
2019-05-21T17:08:39.248Z,32.53
2019-05-21T17:10:41.009Z,35.73
2019-05-21T17:12:42.838Z,45.00
2019-05-21T17:14:44.542Z,33.10
2019-05-21T17:16:46.262Z,31.73
2019-05-21T17:18:47.951Z,34.23
2019-05-21T17:20:49.724Z,38.70
2019-05-21T17:22:51.382Z,41.03
2019-05-21T17:24:53.403Z,40.33
2019-05-21T17:26:55.057Z,33.20
2019-05-21T17:28:56.745Z,34.37
2019-05-21T17:30:58.514Z,35.53
2019-05-21T17:33:00.169Z,33.20
2019-05-21T17:35:04.105Z,31.90
2019-05-21T17:37:05.776Z,32.70
2019-05-21T17:39:07.463Z,39.83
2019-05-21T17:41:09.222Z,32.73
2019-05-21T17:43:10.895Z,36.03
2019-05-21T17:45:12.576Z,42.10
2019-05-21T17:47:14.266Z,34.37
2019-05-21T17:49:16.043Z,35.63
2019-05-21T17:51:17.705Z,38.43
2019-05-21T17:53:19.402Z,33.77
2019-05-21T17:55:21.070Z,38.10
2019-05-21T17:57:23.446Z,35.97
2019-05-21T17:59:25.131Z,41.83
2019-05-21T18:01:27.649Z,34.70
2019-05-21T18:03:30.890Z,39.20
2019-05-21T18:05:32.556Z,40.30
2019-05-21T18:07:34.509Z,35.10
2019-05-21T18:09:36.185Z,45.23
2019-05-21T18:11:38.568Z,42.03
2019-05-21T18:13:41.313Z,36.60
2019-05-21T18:15:43.619Z,38.97
2019-05-21T18:17:45.432Z,36.37
2019-05-21T18:19:48.712Z,33.13
2019-05-21T18:21:50.386Z,34.30
2019-05-21T18:23:53.158Z,35.67
2019-05-21T18:25:55.113Z,37.43
2019-05-21T18:27:56.780Z,34.73
2019-05-21T18:29:58.793Z,39.20
2019-05-21T18:32:00.462Z,36.93
2019-05-21T18:34:02.701Z,43.50
2019-05-21T18:36:04.365Z,35.87
2019-05-21T18:38:06.020Z,31.43
2019-05-21T18:40:08.001Z,29.07
2019-05-21T18:42:21.828Z,32.03
2019-05-21T18:44:13.576Z,29.87
2019-05-21T18:46:15.308Z,32.67
2019-05-21T18:48:16.964Z,33.20
2019-05-21T18:50:18.758Z,37.60
2019-05-21T18:52:20.526Z,36.67
2019-05-21T18:54:22.185Z,32.83
2019-05-21T18:56:23.954Z,32.07
2019-05-21T18:58:25.626Z,42.13
2019-05-21T19:00:27.834Z,32.00
2019-05-21T19:02:29.513Z,31.70
2019-05-21T19:04:31.185Z,33.80
2019-05-21T19:06:32.848Z,36.47
2019-05-21T19:08:34.784Z,37.93
2019-05-21T19:10:36.452Z,46.37
2019-05-21T19:12:38.870Z,35.80
2019-05-21T19:14:44.790Z,34.50
2019-05-21T19:16:44.460Z,35.53
2019-05-21T19:18:46.353Z,36.07
2019-05-21T19:20:50.019Z,39.93
2019-05-21T19:22:51.670Z,36.10
2019-05-21T19:24:53.355Z,46.07
2019-05-21T19:26:55.473Z,41.10
2019-05-21T19:28:57.449Z,37.13
2019-05-21T19:30:59.132Z,43.53
2019-05-21T19:33:00.849Z,34.87
2019-05-21T19:35:02.601Z,38.93
2019-05-21T19:37:04.273Z,34.57
2019-05-21T19:39:06.078Z,36.90
2019-05-21T19:41:07.753Z,35.07
2019-05-21T19:43:10.044Z,37.63
2019-05-21T19:45:13.362Z,33.83
2019-05-21T19:47:15.016Z,39.20
2019-05-21T19:49:16.697Z,31.73
2019-05-21T19:51:18.969Z,36.53
2019-05-21T19:53:20.633Z,31.87
2019-05-21T19:55:22.300Z,36.53
2019-05-21T19:57:25.878Z,32.90
2019-05-21T19:59:27.545Z,37.80
2019-05-21T20:01:29.228Z,28.23
2019-05-21T20:03:30.992Z,31.10
2019-05-21T20:05:32.665Z,30.73
2019-05-21T20:07:34.362Z,29.87
2019-05-21T20:09:37.220Z,30.43
2019-05-21T20:11:39.006Z,31.33
2019-05-21T20:13:40.673Z,29.80
2019-05-21T20:15:42.645Z,29.67
2019-05-21T20:17:45.424Z,33.70
2019-05-21T20:19:49.319Z,32.67
2019-05-21T20:21:50.980Z,29.73
2019-05-21T20:23:53.087Z,36.70
2019-05-21T20:25:56.987Z,36.07
2019-05-21T20:27:59.534Z,34.83
2019-05-21T20:30:12.383Z,36.50
2019-05-21T20:32:06.463Z,34.33
2019-05-21T20:34:10.550Z,33.83
2019-05-21T20:36:12.238Z,36.00
2019-05-21T20:38:13.890Z,33.80
2019-05-21T20:40:16.193Z,37.50
2019-05-21T20:42:20.526Z,45.60
2019-05-21T20:44:22.809Z,33.40
2019-05-21T20:46:25.137Z,32.03
2019-05-21T20:48:31.216Z,40.83
2019-05-21T20:50:33.402Z,38.13
2019-05-21T20:52:35.585Z,39.77
2019-05-21T20:54:37.854Z,43.57
2019-05-21T20:56:39.721Z,34.20
2019-05-21T20:58:41.417Z,42.77
2019-05-21T21:00:57.905Z,39.27
2019-05-21T21:02:59.857Z,40.53
2019-05-21T21:05:03.323Z,36.20
2019-05-21T21:07:06.872Z,40.43
2019-05-21T21:09:11.599Z,43.03
2019-05-21T21:11:13.481Z,48.90
2019-05-21T21:13:15.741Z,40.20
2019-05-21T21:15:17.901Z,41.87
2019-05-21T21:17:19.585Z,38.70
2019-05-21T21:19:21.934Z,40.20
2019-05-21T21:21:24.209Z,44.40
2019-05-21T21:23:28.472Z,53.47
2019-05-21T21:25:30.142Z,42.07
2019-05-21T21:27:32.258Z,40.20
2019-05-21T21:29:34.036Z,40.17
2019-05-21T21:31:35.705Z,43.13
2019-05-21T21:33:37.804Z,42.17
2019-05-21T21:35:40.493Z,43.70
2019-05-21T21:37:42.202Z,43.40
2019-05-21T21:39:44.573Z,47.67
2019-05-21T21:41:46.893Z,45.03
2019-05-21T21:43:48.676Z,42.37
2019-05-21T21:45:50.349Z,41.43
2019-05-21T21:47:53.725Z,43.17
2019-05-21T21:49:55.396Z,53.00
2019-05-21T21:51:57.173Z,49.60
2019-05-21T21:53:59.237Z,39.17
2019-05-21T21:56:01.206Z,47.73
2019-05-21T21:58:02.891Z,49.70
2019-05-21T22:00:14.922Z,44.53
2019-05-21T22:02:22.594Z,42.10
2019-05-21T22:04:29.565Z,47.97
2019-05-21T22:06:31.741Z,45.07
2019-05-21T22:08:33.826Z,57.83
2019-05-21T22:10:36.097Z,47.00
2019-05-21T22:12:38.076Z,49.80
2019-05-21T22:14:50.174Z,57.37
2019-05-21T22:16:44.417Z,53.43
2019-05-21T22:18:47.020Z,56.87
2019-05-21T22:20:49.242Z,56.23
2019-05-21T22:22:51.654Z,46.40
2019-05-21T22:24:53.524Z,56.13
2019-05-21T22:26:55.383Z,65.17
2019-05-21T22:28:57.124Z,60.60
2019-05-21T22:30:58.790Z,58.00
2019-05-21T22:33:00.468Z,63.20
2019-05-21T22:35:02.137Z,59.07
2019-05-21T22:37:06.164Z,54.43
2019-05-21T22:39:14.456Z,50.80
2019-05-21T22:41:16.126Z,55.40
2019-05-21T22:43:17.806Z,50.53
2019-05-21T22:45:19.570Z,55.27
2019-05-21T22:47:21.474Z,60.77
2019-05-21T22:49:24.032Z,54.43
2019-05-21T22:51:25.706Z,55.10
2019-05-21T22:53:27.381Z,56.03
2019-05-21T22:55:29.056Z,53.23
2019-05-21T22:57:30.730Z,58.20
2019-05-21T22:59:32.402Z,57.43
2019-05-21T23:01:35.997Z,57.20
2019-05-21T23:03:37.861Z,58.33
2019-05-21T23:05:39.545Z,61.13
2019-05-21T23:07:41.221Z,51.70
2019-05-21T23:09:42.991Z,68.70
2019-05-21T23:11:44.922Z,58.97
2019-05-21T23:13:46.597Z,63.07
2019-05-21T23:15:49.585Z,57.17
2019-05-21T23:17:51.389Z,68.50
2019-05-21T23:19:54.350Z,55.10
2019-05-21T23:21:56.075Z,57.40
2019-05-21T23:23:58.326Z,61.70
2019-05-21T23:26:00.597Z,63.43
2019-05-21T23:28:03.183Z,60.77
2019-05-21T23:30:06.257Z,55.03
2019-05-21T23:32:08.620Z,63.43
2019-05-21T23:34:10.293Z,62.43
2019-05-21T23:36:12.785Z,56.03
2019-05-21T23:38:15.674Z,61.87
2019-05-21T23:40:17.647Z,61.53
2019-05-21T23:42:29.105Z,58.17
2019-05-21T23:44:24.059Z,70.03
2019-05-21T23:46:26.028Z,66.27
2019-05-21T23:48:28.292Z,64.10
2019-05-21T23:50:30.278Z,65.60
2019-05-21T23:52:32.806Z,63.30
2019-05-21T23:54:34.480Z,61.83
2019-05-21T23:56:36.491Z,64.37
2019-05-21T23:58:38.244Z,64.70
